createdAt,value
2023-02-14T00:00:30.637Z,25.73
2023-02-14T00:02:57.845Z,28.80
2023-02-14T00:05:25.085Z,24.92
2023-02-14T00:07:52.247Z,24.70
2023-02-14T00:10:19.598Z,24.20
2023-02-14T00:12:46.728Z,25.75
2023-02-14T00:15:22.886Z,27.05
2023-02-14T00:17:54.737Z,28.58
2023-02-14T00:20:22.431Z,26.30
2023-02-14T00:22:49.867Z,25.47
2023-02-14T00:25:17.253Z,27.00
2023-02-14T00:27:44.480Z,28.60
2023-02-14T00:30:12.792Z,26.83
2023-02-14T00:32:40.674Z,26.13
2023-02-14T00:35:08.749Z,29.40
2023-02-14T00:37:35.901Z,26.35
2023-02-14T00:40:03.093Z,27.40
2023-02-14T00:42:30.267Z,27.60
2023-02-14T00:44:57.383Z,24.95
2023-02-14T00:47:24.572Z,26.90
2023-02-14T00:49:51.689Z,27.73
2023-02-14T00:52:18.817Z,27.52
2023-02-14T00:54:45.968Z,29.10
2023-02-14T00:57:13.159Z,32.60
2023-02-14T00:59:40.282Z,27.97
2023-02-14T01:02:07.481Z,29.90
2023-02-14T01:04:34.716Z,28.58
2023-02-14T01:07:01.831Z,25.95
2023-02-14T01:09:29.036Z,24.58
2023-02-14T01:11:56.214Z,28.97
2023-02-14T01:14:23.398Z,32.75
2023-02-14T01:16:50.619Z,28.35
2023-02-14T01:19:17.857Z,27.25
2023-02-14T01:21:45.057Z,27.02
2023-02-14T01:24:12.729Z,26.63
2023-02-14T01:26:39.929Z,26.10
2023-02-14T01:29:07.305Z,27.85
2023-02-14T01:31:35.212Z,27.52
2023-02-14T01:34:02.514Z,26.08
2023-02-14T01:36:29.745Z,27.57
2023-02-14T01:38:59.152Z,28.70
2023-02-14T01:41:27.230Z,27.73
2023-02-14T01:43:54.383Z,27.00
2023-02-14T01:46:21.590Z,29.17
2023-02-14T01:48:49.663Z,27.53
2023-02-14T01:51:17.456Z,33.15
2023-02-14T01:53:44.749Z,26.73
2023-02-14T01:56:19.298Z,30.02
2023-02-14T01:58:48.537Z,28.20
2023-02-14T02:01:17.461Z,27.90
2023-02-14T02:03:44.636Z,28.15
2023-02-14T02:06:14.880Z,27.95
2023-02-14T02:08:56.563Z,26.73
2023-02-14T02:11:23.794Z,26.50
2023-02-14T02:13:50.948Z,25.17
2023-02-14T02:16:22.733Z,31.15
2023-02-14T02:19:05.392Z,28.13
2023-02-14T02:21:50.921Z,26.38
2023-02-14T02:24:24.925Z,26.85
2023-02-14T02:26:52.020Z,24.50
2023-02-14T02:29:33.882Z,24.30
2023-02-14T02:32:13.397Z,24.50
2023-02-14T02:34:59.630Z,28.15
2023-02-14T02:37:35.688Z,26.75
2023-02-14T02:40:26.024Z,25.03
2023-02-14T02:43:12.312Z,31.30
2023-02-14T02:46:07.265Z,25.92
2023-02-14T02:48:57.113Z,27.63
2023-02-14T02:51:53.674Z,26.33
2023-02-14T02:54:46.862Z,27.17
2023-02-14T02:57:16.439Z,30.35
2023-02-14T02:59:45.247Z,30.70
2023-02-14T03:02:14.561Z,31.15
2023-02-14T03:04:55.432Z,32.45
2023-02-14T03:07:35.027Z,29.67
2023-02-14T03:10:06.625Z,35.15
2023-02-14T03:12:33.730Z,30.25
2023-02-14T03:15:00.801Z,26.63
2023-02-14T03:17:37.014Z,31.70
2023-02-14T03:20:15.973Z,34.30
2023-02-14T03:22:43.070Z,28.95
2023-02-14T03:25:16.578Z,32.55
2023-02-14T03:27:50.190Z,34.95
2023-02-14T03:30:36.671Z,36.38
2023-02-14T03:33:11.097Z,40.77
2023-02-14T03:35:48.284Z,38.83
2023-02-14T03:38:23.334Z,38.90
2023-02-14T03:40:54.646Z,38.65
2023-02-14T03:43:27.998Z,33.78
2023-02-14T03:46:15.392Z,34.67
2023-02-14T03:48:43.405Z,32.97
2023-02-14T03:51:12.709Z,36.08
2023-02-14T03:53:43.986Z,34.53
2023-02-14T03:56:29.366Z,41.47
2023-02-14T03:58:58.316Z,40.20
2023-02-14T04:01:29.104Z,39.70
2023-02-14T04:03:57.722Z,38.70
2023-02-14T04:06:25.053Z,42.13
2023-02-14T04:08:52.628Z,38.13
2023-02-14T04:11:19.801Z,36.43
2023-02-14T04:13:46.979Z,39.38
2023-02-14T04:16:14.181Z,39.75
2023-02-14T04:19:00.100Z,41.05
2023-02-14T04:21:27.292Z,35.97
2023-02-14T04:23:54.413Z,36.70
2023-02-14T04:26:21.613Z,39.58
2023-02-14T04:28:48.802Z,42.13
2023-02-14T04:31:16.181Z,39.75
2023-02-14T04:33:45.968Z,36.15
2023-02-14T04:36:13.121Z,34.23
2023-02-14T04:38:40.403Z,36.28
2023-02-14T04:41:07.575Z,35.88
2023-02-14T04:43:34.750Z,35.30
2023-02-14T04:46:01.905Z,35.05
2023-02-14T04:48:29.065Z,31.73
2023-02-14T04:50:56.624Z,34.47
2023-02-14T04:53:23.869Z,35.55
2023-02-14T04:55:51.060Z,34.78
2023-02-14T04:58:18.640Z,35.75
2023-02-14T05:00:45.922Z,36.07
2023-02-14T05:03:13.146Z,34.65
2023-02-14T05:05:40.231Z,36.25
2023-02-14T05:08:07.426Z,38.70
2023-02-14T05:10:34.647Z,38.45
2023-02-14T05:13:02.109Z,37.40
2023-02-14T05:15:29.336Z,39.17
2023-02-14T05:17:59.824Z,42.00
2023-02-14T05:20:26.987Z,38.08
2023-02-14T05:22:54.128Z,38.63
2023-02-14T05:25:21.286Z,53.93
2023-02-14T05:27:48.401Z,64.00
2023-02-14T05:30:15.959Z,44.83
2023-02-14T05:32:43.135Z,43.50
2023-02-14T05:35:10.295Z,50.90
2023-02-14T05:37:37.443Z,51.13
2023-02-14T05:40:04.811Z,48.53
2023-02-14T05:42:31.942Z,57.22
2023-02-14T05:44:59.062Z,39.45
2023-02-14T05:47:26.201Z,42.67
2023-02-14T05:49:53.334Z,62.60
2023-02-14T05:52:20.471Z,73.03
2023-02-14T05:54:47.559Z,72.45
2023-02-14T05:57:14.781Z,83.97
2023-02-14T05:59:41.940Z,63.60
2023-02-14T06:02:09.289Z,35.70
2023-02-14T06:04:36.524Z,92.85
2023-02-14T06:07:04.130Z,54.30
2023-02-14T06:09:31.278Z,43.88
2023-02-14T06:11:58.935Z,55.78
2023-02-14T06:14:26.340Z,31.63
2023-02-14T06:16:53.532Z,54.13
2023-02-14T06:19:20.817Z,33.65
2023-02-14T06:21:47.934Z,85.38
2023-02-14T06:24:15.186Z,96.97
2023-02-14T06:26:42.335Z,109.33
2023-02-14T06:29:09.501Z,100.65
2023-02-14T06:31:36.795Z,103.57
2023-02-14T06:34:04.041Z,96.25
2023-02-14T06:36:31.174Z,51.28
2023-02-14T06:38:58.363Z,97.87
2023-02-14T06:41:25.583Z,64.85
2023-02-14T06:43:52.712Z,102.40
2023-02-14T06:46:20.341Z,61.25
2023-02-14T06:48:47.546Z,42.00
2023-02-14T06:51:14.765Z,61.13
2023-02-14T06:53:41.956Z,60.42
2023-02-14T06:56:09.219Z,76.72
2023-02-14T06:58:36.384Z,63.72
2023-02-14T07:01:03.662Z,63.22
2023-02-14T07:03:30.944Z,79.83
2023-02-14T07:05:58.756Z,88.80
2023-02-14T07:08:28.144Z,74.00
2023-02-14T07:10:59.228Z,42.47
2023-02-14T07:13:26.646Z,70.22
2023-02-14T07:15:53.878Z,52.17
2023-02-14T07:18:21.234Z,52.60
2023-02-14T07:20:48.404Z,63.55
2023-02-14T07:23:15.528Z,63.08
2023-02-14T07:25:42.673Z,71.68
2023-02-14T07:28:09.861Z,60.63
2023-02-14T07:30:37.216Z,57.33
2023-02-14T07:33:04.542Z,48.05
2023-02-14T07:35:32.134Z,54.78
2023-02-14T07:37:59.289Z,68.78
2023-02-14T07:40:26.544Z,39.97
2023-02-14T07:42:54.535Z,62.45
2023-02-14T07:45:22.584Z,72.10
2023-02-14T07:47:50.379Z,53.40
2023-02-14T07:50:17.629Z,64.10
2023-02-14T07:52:45.318Z,51.40
2023-02-14T07:55:12.928Z,59.30
2023-02-14T07:57:40.234Z,55.72
2023-02-14T08:00:08.233Z,71.68
2023-02-14T08:02:35.896Z,52.47
2023-02-14T08:05:03.209Z,54.93
2023-02-14T08:07:30.396Z,57.53
2023-02-14T08:09:57.687Z,44.40
2023-02-14T08:12:43.634Z,43.83
2023-02-14T08:15:29.280Z,43.88
2023-02-14T08:17:59.449Z,40.70
2023-02-14T08:20:26.845Z,42.88
2023-02-14T08:22:54.312Z,47.33
2023-02-14T08:25:21.618Z,43.92
2023-02-14T08:27:48.890Z,60.58
2023-02-14T08:30:16.429Z,33.87
2023-02-14T08:32:43.720Z,40.47
2023-02-14T08:35:11.139Z,42.20
2023-02-14T08:37:38.563Z,40.50
2023-02-14T08:40:05.937Z,41.13
2023-02-14T08:42:33.362Z,34.23
2023-02-14T08:45:00.613Z,39.83
2023-02-14T08:47:27.967Z,34.22
2023-02-14T08:49:59.087Z,40.08
2023-02-14T08:52:26.443Z,38.63
2023-02-14T08:54:53.660Z,36.67
2023-02-14T08:57:21.086Z,39.60
2023-02-14T08:59:48.361Z,35.17
2023-02-14T09:02:18.979Z,35.88
2023-02-14T09:04:46.593Z,31.60
2023-02-14T09:07:14.074Z,32.83
2023-02-14T09:09:41.529Z,30.70
2023-02-14T09:12:09.922Z,33.78
2023-02-14T09:14:41.849Z,37.90
2023-02-14T09:17:09.276Z,29.85
2023-02-14T09:19:37.728Z,30.20
2023-02-14T09:22:05.861Z,30.30
2023-02-14T09:24:33.965Z,29.20
2023-02-14T09:27:01.471Z,28.75
2023-02-14T09:29:29.063Z,27.60
2023-02-14T09:31:57.422Z,27.27
2023-02-14T09:34:24.909Z,27.02
2023-02-14T09:37:10.836Z,30.45
2023-02-14T09:39:38.512Z,33.60
2023-02-14T09:42:09.806Z,30.40
2023-02-14T09:44:50.913Z,28.33
2023-02-14T09:47:41.683Z,37.28
2023-02-14T09:50:16.621Z,33.17
2023-02-14T09:52:43.920Z,34.38
2023-02-14T09:55:15.066Z,32.35
2023-02-14T09:57:45.384Z,31.53
2023-02-14T10:00:15.762Z,31.75
2023-02-14T10:02:54.589Z,30.70
2023-02-14T10:05:25.013Z,29.48
2023-02-14T10:08:07.648Z,31.52
2023-02-14T10:10:40.947Z,28.97
2023-02-14T10:13:27.352Z,32.03
2023-02-14T10:16:06.766Z,30.70
2023-02-14T10:18:41.451Z,36.03
2023-02-14T10:21:15.531Z,27.20
2023-02-14T10:23:46.166Z,29.30
2023-02-14T10:26:33.609Z,28.35
2023-02-14T10:29:00.795Z,32.75
2023-02-14T10:31:45.167Z,31.73
2023-02-14T10:34:19.378Z,30.35
2023-02-14T10:37:11.845Z,31.53
2023-02-14T10:39:41.947Z,34.95
2023-02-14T10:42:28.054Z,29.83
2023-02-14T10:45:13.927Z,28.95
2023-02-14T10:47:47.692Z,32.20
2023-02-14T10:50:33.728Z,30.70
2023-02-14T10:53:08.513Z,30.05
2023-02-14T10:55:49.998Z,26.20
2023-02-14T10:58:18.449Z,30.73
2023-02-14T11:00:54.682Z,28.38
2023-02-14T11:03:21.952Z,29.40
2023-02-14T11:05:49.727Z,27.92
2023-02-14T11:08:21.225Z,32.13
2023-02-14T11:10:48.493Z,29.23
2023-02-14T11:13:32.619Z,29.02
2023-02-14T11:16:00.700Z,31.13
2023-02-14T11:18:32.858Z,28.30
2023-02-14T11:21:01.953Z,30.42
2023-02-14T11:23:32.557Z,28.73
2023-02-14T11:26:00.968Z,30.88
2023-02-14T11:28:28.658Z,28.93
2023-02-14T11:30:56.278Z,28.77
2023-02-14T11:33:39.474Z,30.63
2023-02-14T11:36:10.878Z,26.80
2023-02-14T11:38:39.972Z,30.15
2023-02-14T11:41:08.594Z,30.53
2023-02-14T11:43:37.397Z,27.48
2023-02-14T11:46:15.503Z,30.60
2023-02-14T11:48:56.368Z,27.45
2023-02-14T11:51:35.568Z,30.90
2023-02-14T11:54:06.330Z,26.70
2023-02-14T11:57:03.176Z,25.70
2023-02-14T11:59:33.115Z,28.08
2023-02-14T12:02:03.649Z,24.58
2023-02-14T12:04:45.648Z,24.98
2023-02-14T12:07:19.235Z,26.23
2023-02-14T12:09:51.707Z,25.48
2023-02-14T12:12:26.277Z,27.95
2023-02-14T12:14:53.561Z,28.98
2023-02-14T12:17:32.321Z,26.52
2023-02-14T12:19:59.813Z,26.23
2023-02-14T12:22:30.371Z,26.63
2023-02-14T12:25:01.586Z,25.23
2023-02-14T12:27:30.604Z,25.80
2023-02-14T12:30:04.150Z,26.05
2023-02-14T12:32:32.492Z,26.40
2023-02-14T12:35:04.921Z,27.63
2023-02-14T12:37:38.502Z,28.48
2023-02-14T12:40:10.921Z,22.23
2023-02-14T12:42:41.306Z,26.23
2023-02-14T12:45:31.304Z,36.13
2023-02-14T12:47:58.652Z,25.88
2023-02-14T12:50:35.053Z,26.13
2023-02-14T12:53:02.395Z,25.45
2023-02-14T12:55:29.728Z,26.17
2023-02-14T12:58:20.260Z,23.47
2023-02-14T13:01:05.781Z,27.88
2023-02-14T13:03:45.352Z,26.00
2023-02-14T13:06:18.696Z,25.00
2023-02-14T13:08:45.809Z,25.25
2023-02-14T13:11:26.235Z,24.83
2023-02-14T13:13:53.515Z,24.90
2023-02-14T13:16:42.515Z,24.80
2023-02-14T13:19:33.230Z,26.73
2023-02-14T13:22:01.068Z,23.50
2023-02-14T13:24:30.739Z,23.40
2023-02-14T13:27:00.541Z,24.83
2023-02-14T13:29:37.614Z,25.52
2023-02-14T13:32:05.227Z,25.33
2023-02-14T13:34:34.392Z,24.33
2023-02-14T13:37:03.040Z,25.07
2023-02-14T13:39:31.208Z,25.95
2023-02-14T13:42:00.151Z,25.52
2023-02-14T13:44:39.448Z,27.10
2023-02-14T13:47:07.183Z,24.38
2023-02-14T13:49:34.959Z,24.40
2023-02-14T13:52:03.743Z,23.27
2023-02-14T13:54:47.696Z,22.65
2023-02-14T13:57:32.395Z,24.38
2023-02-14T14:00:23.054Z,26.55
2023-02-14T14:02:51.312Z,25.10
2023-02-14T14:05:30.668Z,23.63
2023-02-14T14:08:18.861Z,27.17
2023-02-14T14:10:47.380Z,26.25
2023-02-14T14:13:33.195Z,24.38
2023-02-14T14:16:19.252Z,23.17
2023-02-14T14:18:46.443Z,24.20
2023-02-14T14:21:23.742Z,25.60
2023-02-14T14:24:06.246Z,23.83
2023-02-14T14:26:37.832Z,25.60
2023-02-14T14:29:11.565Z,23.90
2023-02-14T14:31:39.071Z,24.77
2023-02-14T14:34:06.302Z,25.00
2023-02-14T14:36:33.464Z,22.15
2023-02-14T14:39:00.682Z,23.50
2023-02-14T14:41:29.163Z,24.83
2023-02-14T14:43:56.803Z,24.65
2023-02-14T14:46:24.108Z,26.50
2023-02-14T14:48:52.404Z,23.58
2023-02-14T14:51:23.708Z,23.00
2023-02-14T14:53:52.418Z,22.87
2023-02-14T14:56:33.429Z,26.90
2023-02-14T14:59:20.920Z,23.15
2023-02-14T15:01:50.276Z,24.10
2023-02-14T15:04:17.475Z,23.00
2023-02-14T15:06:45.174Z,24.47
2023-02-14T15:09:24.037Z,28.70
2023-02-14T15:12:11.540Z,24.10
2023-02-14T15:14:41.438Z,24.85
2023-02-14T15:17:15.381Z,27.25
2023-02-14T15:19:44.140Z,24.60
2023-02-14T15:22:22.296Z,25.08
2023-02-14T15:24:50.491Z,23.95
2023-02-14T15:27:19.014Z,27.10
2023-02-14T15:30:06.670Z,26.20
2023-02-14T15:32:35.305Z,23.43
2023-02-14T15:35:03.640Z,24.08
2023-02-14T15:37:30.978Z,27.40
2023-02-14T15:39:58.482Z,26.35
2023-02-14T15:42:32.599Z,25.30
2023-02-14T15:45:18.692Z,23.87
2023-02-14T15:47:47.615Z,25.95
2023-02-14T15:50:16.109Z,24.90
2023-02-14T15:52:43.292Z,28.08
2023-02-14T15:55:11.553Z,23.38
2023-02-14T15:57:38.712Z,24.40
2023-02-14T16:00:11.211Z,24.45
2023-02-14T16:02:41.192Z,25.27
2023-02-14T16:05:25.589Z,25.23
2023-02-14T16:08:15.833Z,24.95
2023-02-14T16:10:42.993Z,25.70
2023-02-14T16:13:13.269Z,23.00
2023-02-14T16:15:44.398Z,26.38
2023-02-14T16:18:19.451Z,27.08
2023-02-14T16:20:51.237Z,26.98
2023-02-14T16:23:18.421Z,24.43
2023-02-14T16:25:46.589Z,28.02
2023-02-14T16:28:13.979Z,26.85
2023-02-14T16:30:41.913Z,26.63
2023-02-14T16:33:15.842Z,27.35
2023-02-14T16:35:42.999Z,29.43
2023-02-14T16:38:13.599Z,26.90
2023-02-14T16:40:42.966Z,27.55
2023-02-14T16:43:12.552Z,28.02
2023-02-14T16:45:40.040Z,29.17
2023-02-14T16:48:07.222Z,29.03
2023-02-14T16:50:35.037Z,33.00
2023-02-14T16:53:02.260Z,47.03
2023-02-14T16:55:30.091Z,35.35
2023-02-14T16:57:58.239Z,30.73
2023-02-14T17:00:27.334Z,29.37
2023-02-14T17:03:04.489Z,31.67
2023-02-14T17:05:33.126Z,32.85
2023-02-14T17:08:01.762Z,33.67
2023-02-14T17:10:30.153Z,30.75
2023-02-14T17:12:59.194Z,35.23
2023-02-14T17:15:27.060Z,33.00
2023-02-14T17:17:57.605Z,39.42
2023-02-14T17:20:24.848Z,32.53
2023-02-14T17:22:52.028Z,32.20
2023-02-14T17:25:19.250Z,32.27
2023-02-14T17:27:46.487Z,32.35
2023-02-14T17:30:14.692Z,33.70
2023-02-14T17:32:42.303Z,32.22
2023-02-14T17:35:09.684Z,34.20
2023-02-14T17:37:37.605Z,34.10
2023-02-14T17:40:05.965Z,33.55
2023-02-14T17:42:34.078Z,32.88
2023-02-14T17:45:01.573Z,34.20
2023-02-14T17:47:29.708Z,33.25
2023-02-14T17:49:57.323Z,36.47
2023-02-14T17:52:29.889Z,39.58
2023-02-14T17:55:12.906Z,45.83
2023-02-14T17:57:52.355Z,37.42
2023-02-14T18:00:20.902Z,41.45
2023-02-14T18:02:48.638Z,37.20
2023-02-14T18:05:19.206Z,37.60
2023-02-14T18:07:46.311Z,35.80
2023-02-14T18:10:13.573Z,36.60
2023-02-14T18:12:40.766Z,36.75
2023-02-14T18:15:16.729Z,37.47
2023-02-14T18:17:43.987Z,37.20
2023-02-14T18:20:11.430Z,40.97
2023-02-14T18:22:38.738Z,35.30
2023-02-14T18:25:06.166Z,37.35
2023-02-14T18:27:36.627Z,38.17
2023-02-14T20:37:26.314Z,37.72
2023-02-14T20:39:53.454Z,41.35
2023-02-14T20:42:20.678Z,43.10
2023-02-14T20:44:47.852Z,39.95
2023-02-14T20:47:15.090Z,40.10
2023-02-14T20:49:44.626Z,39.58
2023-02-14T20:52:12.137Z,35.78
2023-02-14T20:54:39.808Z,41.63
2023-02-14T20:57:06.984Z,39.63
2023-02-14T20:59:34.194Z,36.33
2023-02-14T21:02:01.349Z,40.47
2023-02-14T21:04:29.558Z,38.60
2023-02-14T21:06:57.733Z,37.25
2023-02-14T21:09:25.013Z,38.00
2023-02-14T21:11:53.821Z,36.30
2023-02-14T21:14:21.343Z,39.97
2023-02-14T21:16:48.482Z,38.80
2023-02-14T21:19:15.765Z,35.33
2023-02-14T21:21:42.928Z,36.35
2023-02-14T21:24:15.417Z,38.30
2023-02-14T21:26:42.807Z,32.50
2023-02-14T21:29:10.427Z,37.22
2023-02-14T21:31:38.070Z,36.83
2023-02-14T21:34:05.356Z,35.78
2023-02-14T21:36:35.727Z,33.95
2023-02-14T21:39:04.239Z,35.63
2023-02-14T21:41:31.838Z,33.30
2023-02-14T21:43:59.883Z,34.33
2023-02-14T21:46:30.748Z,38.30
2023-02-14T21:49:21.274Z,33.33
2023-02-14T21:51:49.044Z,34.70
2023-02-14T21:54:16.769Z,33.40
2023-02-14T21:56:44.189Z,37.03
2023-02-14T21:59:11.623Z,34.55
2023-02-14T22:01:39.869Z,35.38
2023-02-14T22:04:09.140Z,34.85
2023-02-14T22:06:37.385Z,32.10
2023-02-14T22:09:05.422Z,30.00
2023-02-14T22:11:32.551Z,37.78
2023-02-14T22:14:00.532Z,41.85
2023-02-14T22:16:27.869Z,33.75
2023-02-14T22:18:55.103Z,36.30
2023-02-14T22:21:23.412Z,39.58
2023-02-14T22:23:50.870Z,37.15
2023-02-14T22:26:28.475Z,35.15
2023-02-14T22:28:57.053Z,39.93
2023-02-14T22:31:25.735Z,37.78
2023-02-14T22:33:53.299Z,41.65
2023-02-14T22:36:20.755Z,38.28
2023-02-14T22:38:47.953Z,40.67
2023-02-14T22:41:16.188Z,37.35
2023-02-14T22:43:43.951Z,36.70
2023-02-14T22:46:29.276Z,39.20
2023-02-14T22:48:57.549Z,42.90
2023-02-14T22:51:24.854Z,37.80
2023-02-14T22:53:53.131Z,38.60
2023-02-14T22:56:24.152Z,36.92
2023-02-14T22:59:01.816Z,40.13
2023-02-14T23:01:29.350Z,36.22
2023-02-14T23:03:57.868Z,37.97
2023-02-14T23:06:25.732Z,39.70
2023-02-14T23:08:53.466Z,40.72
2023-02-14T23:11:21.689Z,35.72
2023-02-14T23:14:07.301Z,41.53
2023-02-14T23:16:53.488Z,36.30
2023-02-14T23:19:40.830Z,39.40
2023-02-14T23:22:11.933Z,35.10
2023-02-14T23:24:39.692Z,39.00
2023-02-14T23:27:07.169Z,39.92
2023-02-14T23:29:34.416Z,38.35
2023-02-14T23:32:01.699Z,38.10
2023-02-14T23:34:29.667Z,36.97
2023-02-14T23:36:57.085Z,38.00
2023-02-14T23:39:24.323Z,40.97
2023-02-14T23:41:51.614Z,34.60
2023-02-14T23:44:21.911Z,37.63
2023-02-14T23:46:50.342Z,37.08
2023-02-14T23:49:17.890Z,37.67
2023-02-14T23:51:45.698Z,37.40
2023-02-14T23:54:13.517Z,37.85
2023-02-14T23:56:41.097Z,38.33
2023-02-14T23:59:08.555Z,36.72
